Time;durP1;ratioP1;P1;durP2;ratioP2;P2;SDS_P1;SDS_P2;PMS_P1;PMS_P2;Temp;Humidity;BMP_temperature;BMP_pressure;BME280_temperature;BME280_humidity;BME280_pressure;Samples;Min_cycle;Max_cycle;Signal;HPM_P1;HPM_P2
2022/03/31 00:00:56;;;;;;;29.77;13.17;;;;;;;;;;5034801;28;20227;-47
2022/03/31 00:03:23;;;;;;;22.47;12.63;;;;;;;;;;5034380;28;20721;-48
2022/03/31 00:05:51;;;;;;;23.43;13.73;;;;;;;;;;5034736;28;20208;-48
2022/03/31 00:08:19;;;;;;;23.53;12.33;;;;;;;;;;5034354;28;20232;-48
2022/03/31 00:10:49;;;;;;;23.97;13.20;;;;;;;;;;5034193;28;20193;-48
2022/03/31 00:13:18;;;;;;;26.60;14.57;;;;;;;;;;5033475;28;20210;-51
2022/03/31 00:15:46;;;;;;;23.47;13.17;;;;;;;;;;5034849;28;20227;-49
2022/03/31 00:18:15;;;;;;;28.43;14.50;;;;;;;;;;5034759;28;20196;-48
2022/03/31 00:20:42;;;;;;;24.30;13.87;;;;;;;;;;5034429;28;20258;-48
2022/03/31 00:23:09;;;;;;;25.20;13.43;;;;;;;;;;5034692;28;20595;-47
2022/03/31 00:25:37;;;;;;;25.33;13.53;;;;;;;;;;5034609;28;20266;-48
2022/03/31 00:28:04;;;;;;;29.13;13.97;;;;;;;;;;5034588;28;20209;-49
2022/03/31 00:30:32;;;;;;;21.30;11.83;;;;;;;;;;5034240;28;20212;-48
2022/03/31 00:33:00;;;;;;;22.33;13.17;;;;;;;;;;5034199;28;20205;-49
2022/03/31 00:35:28;;;;;;;26.47;13.83;;;;;;;;;;5034443;28;20201;-47
2022/03/31 00:37:55;;;;;;;29.37;14.07;;;;;;;;;;5034448;28;20717;-48
2022/03/31 00:40:23;;;;;;;24.70;13.33;;;;;;;;;;5034285;28;20232;-47
2022/03/31 00:42:53;;;;;;;28.20;12.60;;;;;;;;;;5034049;28;20221;-47
2022/03/31 00:45:23;;;;;;;25.20;14.47;;;;;;;;;;5034384;28;20205;-48
2022/03/31 00:47:51;;;;;;;22.13;12.60;;;;;;;;;;5033515;28;20299;-49
2022/03/31 00:50:19;;;;;;;28.63;13.10;;;;;;;;;;5034143;28;20196;-47
2022/03/31 00:52:46;;;;;;;26.40;14.53;;;;;;;;;;5034241;28;20258;-48
2022/03/31 00:55:15;;;;;;;27.00;14.10;;;;;;;;;;5034327;28;20197;-48
2022/03/31 00:57:43;;;;;;;24.47;14.57;;;;;;;;;;5033972;28;20220;-48
2022/03/31 01:00:14;;;;;;;23.47;15.37;;;;;;;;;;5033433;28;20223;-48
2022/03/31 01:02:43;;;;;;;24.63;14.53;;;;;;;;;;5037841;28;20295;-47
2022/03/31 01:05:14;;;;;;;27.80;16.37;;;;;;;;;;5037815;28;20216;-47
2022/03/31 01:07:42;;;;;;;25.17;14.80;;;;;;;;;;5038050;28;20524;-47
2022/03/31 01:10:12;;;;;;;24.63;14.00;;;;;;;;;;5037649;28;20306;-48
2022/03/31 01:12:39;;;;;;;36.50;18.43;;;;;;;;;;5037589;28;20631;-47
2022/03/31 01:15:07;;;;;;;31.17;18.13;;;;;;;;;;5038058;28;20205;-47
2022/03/31 01:17:36;;;;;;;43.10;21.43;;;;;;;;;;5037857;28;20342;-46
2022/03/31 01:20:05;;;;;;;33.20;19.03;;;;;;;;;;5037761;28;20309;-47
2022/03/31 01:22:33;;;;;;;38.70;19.97;;;;;;;;;;5037490;28;20211;-48
2022/03/31 01:25:01;;;;;;;41.50;21.47;;;;;;;;;;5037324;28;20263;-47
2022/03/31 01:27:29;;;;;;;37.83;21.33;;;;;;;;;;5037103;28;20193;-47
2022/03/31 01:29:56;;;;;;;38.57;20.20;;;;;;;;;;5037092;28;20208;-47
2022/03/31 01:32:23;;;;;;;38.80;20.10;;;;;;;;;;5037521;28;20208;-48
2022/03/31 01:34:50;;;;;;;31.70;19.10;;;;;;;;;;5037326;28;20219;-48
2022/03/31 01:37:17;;;;;;;38.17;21.03;;;;;;;;;;5052082;28;20624;-47
2022/03/31 01:39:44;;;;;;;31.63;17.03;;;;;;;;;;5037633;28;20518;-47
2022/03/31 01:42:12;;;;;;;35.90;20.60;;;;;;;;;;5036827;28;20216;-47
2022/03/31 01:44:39;;;;;;;42.80;21.70;;;;;;;;;;5036899;28;20252;-47
2022/03/31 01:47:07;;;;;;;36.30;21.13;;;;;;;;;;5036867;28;20197;-47
2022/03/31 01:49:37;;;;;;;33.17;17.70;;;;;;;;;;5037047;28;20572;-46
2022/03/31 01:52:04;;;;;;;46.97;23.30;;;;;;;;;;5036990;28;20220;-47
2022/03/31 01:54:32;;;;;;;39.00;22.43;;;;;;;;;;5036765;28;20219;-48
2022/03/31 01:57:00;;;;;;;43.03;23.53;;;;;;;;;;5036618;28;20225;-47
2022/03/31 01:59:38;;;;;;;39.23;20.93;;;;;;;;;;5036686;28;20200;-47
2022/03/31 02:02:05;;;;;;;42.77;25.60;;;;;;;;;;5036881;28;20215;-48
2022/03/31 02:04:36;;;;;;;50.67;23.10;;;;;;;;;;5036811;28;20205;-47
2022/03/31 02:07:03;;;;;;;49.53;24.73;;;;;;;;;;5036304;28;20200;-47
2022/03/31 02:09:30;;;;;;;45.13;25.73;;;;;;;;;;5036503;28;20252;-49
2022/03/31 02:11:58;;;;;;;45.00;26.00;;;;;;;;;;5035659;28;20628;-47
2022/03/31 02:14:25;;;;;;;46.23;25.00;;;;;;;;;;5036656;28;20205;-48
2022/03/31 02:16:52;;;;;;;43.80;26.97;;;;;;;;;;5036085;28;20262;-47
2022/03/31 02:19:20;;;;;;;42.53;22.63;;;;;;;;;;5036481;28;20201;-47
2022/03/31 02:21:47;;;;;;;47.37;27.50;;;;;;;;;;5036088;28;20216;-49
2022/03/31 02:24:14;;;;;;;45.27;26.40;;;;;;;;;;5036757;28;20225;-48
2022/03/31 02:26:42;;;;;;;45.17;24.93;;;;;;;;;;5036148;28;20343;-52
2022/03/31 02:29:09;;;;;;;48.33;26.13;;;;;;;;;;5035997;28;20204;-50
2022/03/31 02:31:36;;;;;;;28.50;16.10;;;;;;;;;;5036103;28;20274;-46
2022/03/31 02:34:04;;;;;;;44.43;28.50;;;;;;;;;;5036125;28;20209;-46
2022/03/31 02:36:31;;;;;;;45.37;26.20;;;;;;;;;;5036297;28;20212;-49
2022/03/31 02:38:58;;;;;;;46.37;25.33;;;;;;;;;;5038362;28;20291;-48
2022/03/31 02:41:26;;;;;;;51.70;29.50;;;;;;;;;;5050225;28;20207;-47
2022/03/31 02:43:54;;;;;;;42.13;24.20;;;;;;;;;;5055574;28;20235;-48
2022/03/31 02:46:21;;;;;;;49.33;29.83;;;;;;;;;;5054593;28;20219;-51
2022/03/31 02:48:52;;;;;;;49.80;24.93;;;;;;;;;;5056223;28;20519;-49
2022/03/31 02:51:20;;;;;;;47.60;22.67;;;;;;;;;;5055639;28;20199;-48
2022/03/31 02:56:34;;;;;;;53.63;29.30;;;;;;;;;;5055607;28;20257;-47
2022/03/31 02:59:02;;;;;;;50.43;27.70;;;;;;;;;;5055338;28;20549;-51
2022/03/31 03:01:29;;;;;;;51.30;25.30;;;;;;;;;;5055544;28;20195;-47
2022/03/31 03:04:00;;;;;;;46.50;29.23;;;;;;;;;;5055166;28;20234;-49
2022/03/31 03:06:28;;;;;;;55.13;29.97;;;;;;;;;;5055904;28;20195;-49
2022/03/31 03:08:55;;;;;;;52.23;30.93;;;;;;;;;;5055596;28;20273;-48
2022/03/31 03:11:22;;;;;;;59.03;32.23;;;;;;;;;;5055320;28;20207;-47
2022/03/31 03:13:50;;;;;;;52.87;32.27;;;;;;;;;;5055648;28;20218;-48
2022/03/31 03:16:17;;;;;;;46.83;24.30;;;;;;;;;;5055861;28;20196;-47
2022/03/31 03:18:44;;;;;;;50.53;28.43;;;;;;;;;;5054900;28;20215;-47
2022/03/31 03:21:11;;;;;;;50.10;30.53;;;;;;;;;;5055118;28;20730;-48
2022/03/31 03:23:39;;;;;;;50.83;29.90;;;;;;;;;;5054599;28;20220;-48
2022/03/31 03:26:07;;;;;;;47.70;28.57;;;;;;;;;;5055044;28;20208;-50
2022/03/31 03:28:38;;;;;;;51.63;29.07;;;;;;;;;;5055093;28;20653;-49
2022/03/31 03:31:06;;;;;;;53.40;31.90;;;;;;;;;;5054930;28;20526;-49
2022/03/31 03:33:34;;;;;;;48.17;28.13;;;;;;;;;;5055182;28;20211;-47
2022/03/31 03:36:03;;;;;;;48.23;29.47;;;;;;;;;;5054815;28;20552;-51
2022/03/31 03:38:33;;;;;;;49.03;31.23;;;;;;;;;;5054646;28;20204;-52
2022/03/31 03:41:02;;;;;;;49.93;32.43;;;;;;;;;;5054756;28;20204;-49
2022/03/31 03:43:31;;;;;;;50.17;26.87;;;;;;;;;;5054634;28;20204;-49
2022/03/31 03:45:58;;;;;;;49.57;29.80;;;;;;;;;;5054318;28;20204;-49
2022/03/31 03:48:25;;;;;;;50.07;27.90;;;;;;;;;;5054539;28;20230;-50
2022/03/31 03:50:53;;;;;;;50.00;29.70;;;;;;;;;;5054599;28;20207;-50
2022/03/31 03:53:20;;;;;;;50.57;27.17;;;;;;;;;;5054262;28;20210;-50
2022/03/31 03:55:48;;;;;;;46.67;28.73;;;;;;;;;;5054564;28;20203;-51
2022/03/31 03:58:15;;;;;;;55.30;30.47;;;;;;;;;;5054395;28;20210;-49
2022/03/31 04:00:43;;;;;;;49.40;30.40;;;;;;;;;;5048456;28;20214;-54
2022/03/31 04:03:12;;;;;;;46.70;29.23;;;;;;;;;;5048048;28;20230;-50
2022/03/31 04:05:39;;;;;;;45.43;26.03;;;;;;;;;;5045975;28;20234;-52
2022/03/31 04:08:07;;;;;;;50.23;28.03;;;;;;;;;;5052362;28;20282;-52
2022/03/31 04:10:35;;;;;;;47.43;24.70;;;;;;;;;;5053221;28;20227;-52
2022/03/31 04:13:02;;;;;;;44.40;28.27;;;;;;;;;;5052721;28;20285;-50
2022/03/31 04:15:29;;;;;;;46.27;29.37;;;;;;;;;;5044499;28;20273;-56
2022/03/31 04:17:57;;;;;;;46.53;25.57;;;;;;;;;;5041158;28;20235;-50
2022/03/31 04:20:24;;;;;;;52.07;28.87;;;;;;;;;;5053412;28;20223;-52
2022/03/31 04:22:51;;;;;;;47.03;24.57;;;;;;;;;;5049636;28;20212;-50
2022/03/31 04:25:18;;;;;;;50.77;25.93;;;;;;;;;;5052634;28;20236;-49
2022/03/31 04:27:45;;;;;;;54.47;25.63;;;;;;;;;;5053112;28;20666;-49
2022/03/31 04:30:13;;;;;;;54.33;29.80;;;;;;;;;;5052990;28;20623;-48
2022/03/31 04:32:40;;;;;;;53.97;28.93;;;;;;;;;;5052952;28;20260;-52
2022/03/31 04:35:08;;;;;;;57.67;27.10;;;;;;;;;;5053673;28;20301;-49
2022/03/31 04:37:35;;;;;;;55.03;25.27;;;;;;;;;;5057175;28;20274;-51
2022/03/31 04:40:05;;;;;;;52.80;30.70;;;;;;;;;;5056299;28;20685;-49
2022/03/31 04:42:32;;;;;;;48.57;25.27;;;;;;;;;;5056893;28;20220;-50
2022/03/31 04:44:59;;;;;;;51.60;27.90;;;;;;;;;;5056814;28;20619;-55
2022/03/31 04:47:26;;;;;;;51.13;27.13;;;;;;;;;;5056278;28;20243;-52
2022/03/31 04:49:53;;;;;;;56.53;31.00;;;;;;;;;;5054606;28;20216;-51
2022/03/31 04:52:21;;;;;;;60.93;30.57;;;;;;;;;;5056151;28;20223;-51
2022/03/31 04:54:48;;;;;;;64.80;31.50;;;;;;;;;;5040109;28;20235;-52
2022/03/31 04:57:18;;;;;;;62.80;33.47;;;;;;;;;;5036798;28;20225;-47
2022/03/31 04:59:45;;;;;;;53.57;29.37;;;;;;;;;;5036906;28;20220;-49
2022/03/31 05:02:12;;;;;;;52.07;27.27;;;;;;;;;;5036283;28;20675;-48
2022/03/31 05:04:40;;;;;;;50.23;23.50;;;;;;;;;;5037130;28;20533;-48
2022/03/31 05:07:08;;;;;;;48.97;27.27;;;;;;;;;;5036835;28;20220;-48
2022/03/31 05:09:36;;;;;;;46.63;25.43;;;;;;;;;;5037268;28;20263;-49
2022/03/31 05:12:05;;;;;;;49.30;25.93;;;;;;;;;;5054918;28;20228;-50
2022/03/31 05:14:32;;;;;;;41.73;25.23;;;;;;;;;;5053396;28;20220;-48
2022/03/31 05:16:59;;;;;;;45.53;21.87;;;;;;;;;;5055707;28;20230;-54
2022/03/31 05:19:27;;;;;;;45.50;25.43;;;;;;;;;;5051960;28;20219;-51
2022/03/31 05:21:54;;;;;;;44.87;26.43;;;;;;;;;;5056203;28;20246;-48
2022/03/31 05:24:21;;;;;;;41.87;27.33;;;;;;;;;;5054621;28;20231;-53
2022/03/31 05:26:52;;;;;;;42.00;24.80;;;;;;;;;;5055973;28;20684;-48
2022/03/31 05:29:20;;;;;;;39.23;23.73;;;;;;;;;;5054967;28;20224;-49
2022/03/31 05:31:48;;;;;;;43.53;26.57;;;;;;;;;;5054650;28;20196;-50
2022/03/31 05:34:15;;;;;;;43.50;26.40;;;;;;;;;;5055855;28;20238;-48
2022/03/31 05:36:42;;;;;;;44.10;27.13;;;;;;;;;;5056457;28;20274;-48
2022/03/31 05:39:11;;;;;;;40.30;23.00;;;;;;;;;;5056707;28;20265;-48
2022/03/31 05:41:38;;;;;;;40.30;22.40;;;;;;;;;;5056912;28;20204;-47
2022/03/31 05:44:05;;;;;;;41.20;24.70;;;;;;;;;;5056749;28;20222;-47
2022/03/31 05:46:32;;;;;;;40.60;24.93;;;;;;;;;;5056547;28;20643;-48
2022/03/31 05:48:59;;;;;;;35.70;23.63;;;;;;;;;;5057329;28;20583;-48
2022/03/31 05:51:26;;;;;;;37.03;22.17;;;;;;;;;;5056791;28;20208;-49
2022/03/31 05:53:54;;;;;;;36.33;21.73;;;;;;;;;;5056803;28;20228;-48
2022/03/31 05:56:21;;;;;;;35.33;20.33;;;;;;;;;;5056692;28;20650;-47
2022/03/31 05:58:49;;;;;;;32.83;22.10;;;;;;;;;;5056792;28;20215;-49
2022/03/31 06:01:17;;;;;;;33.40;20.70;;;;;;;;;;5056790;28;20223;-47
2022/03/31 06:03:44;;;;;;;38.30;23.20;;;;;;;;;;5056932;28;20344;-47
2022/03/31 06:06:11;;;;;;;36.47;19.50;;;;;;;;;;5056530;28;20220;-48
2022/03/31 06:08:38;;;;;;;35.30;21.60;;;;;;;;;;5056519;28;20235;-47
2022/03/31 06:11:05;;;;;;;30.37;18.20;;;;;;;;;;5056498;28;20262;-48
2022/03/31 06:13:32;;;;;;;33.80;22.20;;;;;;;;;;5056491;28;20269;-49
2022/03/31 06:15:59;;;;;;;30.73;22.27;;;;;;;;;;5056535;28;20673;-49
2022/03/31 06:18:27;;;;;;;36.00;23.27;;;;;;;;;;5056285;28;20203;-48
2022/03/31 06:20:54;;;;;;;32.27;22.80;;;;;;;;;;5056369;28;20219;-48
2022/03/31 06:23:22;;;;;;;25.97;16.23;;;;;;;;;;5056285;28;20285;-49
2022/03/31 06:25:50;;;;;;;31.77;20.97;;;;;;;;;;5056675;28;20220;-49
2022/03/31 06:28:17;;;;;;;35.83;22.67;;;;;;;;;;5055172;28;20204;-50
2022/03/31 06:30:48;;;;;;;29.20;21.00;;;;;;;;;;5056137;28;20200;-49
2022/03/31 06:33:17;;;;;;;38.53;20.67;;;;;;;;;;5056275;28;20204;-48
2022/03/31 06:35:44;;;;;;;27.70;18.63;;;;;;;;;;5055812;28;20555;-49
2022/03/31 06:38:12;;;;;;;30.80;20.73;;;;;;;;;;5055776;28;20216;-50
2022/03/31 06:40:41;;;;;;;28.03;21.40;;;;;;;;;;5055909;28;20277;-49
2022/03/31 06:43:08;;;;;;;23.93;15.83;;;;;;;;;;5055817;28;20212;-51
2022/03/31 06:45:36;;;;;;;25.67;19.10;;;;;;;;;;5055961;28;20228;-52
2022/03/31 06:48:05;;;;;;;28.73;18.40;;;;;;;;;;5055732;28;20235;-52
2022/03/31 06:50:33;;;;;;;23.97;15.00;;;;;;;;;;5055749;28;20231;-50
2022/03/31 06:53:01;;;;;;;24.93;15.73;;;;;;;;;;5054603;28;20647;-51
2022/03/31 06:55:28;;;;;;;34.70;22.07;;;;;;;;;;5055649;28;20704;-53
2022/03/31 06:57:55;;;;;;;29.80;18.30;;;;;;;;;;5054848;28;20211;-53
2022/03/31 07:00:23;;;;;;;27.00;19.17;;;;;;;;;;5055551;28;20247;-47
2022/03/31 07:02:50;;;;;;;28.07;18.30;;;;;;;;;;5055220;28;20282;-48
2022/03/31 07:05:17;;;;;;;25.77;17.90;;;;;;;;;;5055214;28;20310;-49
2022/03/31 07:07:45;;;;;;;25.60;18.67;;;;;;;;;;5055784;28;20204;-49
2022/03/31 07:10:13;;;;;;;29.60;20.40;;;;;;;;;;5055814;28;20235;-48
2022/03/31 07:12:40;;;;;;;24.20;16.87;;;;;;;;;;5055409;28;20200;-48
2022/03/31 07:15:08;;;;;;;28.37;18.77;;;;;;;;;;5055650;28;20200;-49
2022/03/31 07:17:35;;;;;;;23.87;14.53;;;;;;;;;;5054262;28;20321;-49
2022/03/31 07:20:06;;;;;;;26.50;17.70;;;;;;;;;;5055290;28;20210;-50
2022/03/31 07:22:35;;;;;;;28.93;21.00;;;;;;;;;;5055468;28;20208;-49
2022/03/31 07:25:03;;;;;;;30.13;21.03;;;;;;;;;;5054835;28;20662;-50
2022/03/31 07:27:30;;;;;;;29.37;17.87;;;;;;;;;;5055227;28;20208;-48
2022/03/31 07:29:57;;;;;;;30.63;21.23;;;;;;;;;;5054808;28;20215;-48
2022/03/31 07:32:25;;;;;;;25.47;18.53;;;;;;;;;;5054869;28;20207;-49
2022/03/31 07:34:52;;;;;;;29.90;20.40;;;;;;;;;;5055132;28;20226;-49
2022/03/31 07:37:19;;;;;;;29.27;20.90;;;;;;;;;;5054661;28;20200;-51
2022/03/31 07:39:46;;;;;;;29.03;21.23;;;;;;;;;;5054973;28;20283;-48
2022/03/31 07:42:14;;;;;;;22.40;16.20;;;;;;;;;;5054604;28;20208;-48
2022/03/31 07:44:41;;;;;;;28.90;20.50;;;;;;;;;;5054869;28;20583;-49
2022/03/31 07:47:09;;;;;;;27.27;19.07;;;;;;;;;;5054888;28;20228;-49
2022/03/31 07:49:36;;;;;;;23.90;18.97;;;;;;;;;;5054669;28;20627;-50
2022/03/31 07:52:03;;;;;;;27.83;17.60;;;;;;;;;;5054679;28;20196;-49
2022/03/31 07:54:31;;;;;;;16.50;9.13;;;;;;;;;;5054711;28;20270;-50
2022/03/31 07:56:58;;;;;;;26.67;19.77;;;;;;;;;;5054961;28;20207;-50
2022/03/31 07:59:32;;;;;;;27.87;17.67;;;;;;;;;;5054734;28;20310;-48
2022/03/31 08:02:00;;;;;;;25.07;17.13;;;;;;;;;;5054822;28;20258;-48
2022/03/31 08:04:27;;;;;;;22.63;14.20;;;;;;;;;;5054611;28;20204;-48
2022/03/31 08:06:55;;;;;;;29.47;22.50;;;;;;;;;;5054357;28;20232;-49
2022/03/31 08:09:22;;;;;;;19.83;11.37;;;;;;;;;;5054263;28;20282;-47
2022/03/31 08:11:50;;;;;;;24.23;14.43;;;;;;;;;;5057479;28;20640;-48
2022/03/31 08:14:21;;;;;;;25.10;18.37;;;;;;;;;;5058777;28;20204;-49
2022/03/31 08:16:52;;;;;;;25.07;18.40;;;;;;;;;;5059139;28;20214;-48
2022/03/31 08:19:19;;;;;;;26.77;17.90;;;;;;;;;;5058602;28;20204;-47
2022/03/31 08:21:48;;;;;;;27.33;18.30;;;;;;;;;;5058278;28;20208;-52
2022/03/31 08:24:15;;;;;;;27.83;18.23;;;;;;;;;;5058558;28;20310;-48
2022/03/31 08:26:44;;;;;;;27.70;20.57;;;;;;;;;;5058446;28;20227;-47
2022/03/31 08:29:11;;;;;;;27.10;18.57;;;;;;;;;;5058195;28;20200;-49
2022/03/31 08:31:39;;;;;;;29.17;19.63;;;;;;;;;;5058302;28;20214;-49
2022/03/31 08:34:07;;;;;;;27.50;18.33;;;;;;;;;;5058323;28;20200;-48
2022/03/31 08:36:34;;;;;;;27.37;17.47;;;;;;;;;;5057959;28;20543;-48
2022/03/31 08:39:03;;;;;;;24.23;19.57;;;;;;;;;;5058828;28;20290;-48
2022/03/31 08:41:31;;;;;;;25.13;17.13;;;;;;;;;;5057976;28;20200;-49
2022/03/31 08:43:59;;;;;;;24.23;18.30;;;;;;;;;;5058061;28;20257;-48
2022/03/31 08:46:31;;;;;;;25.10;18.33;;;;;;;;;;5057768;28;20236;-48
2022/03/31 08:48:59;;;;;;;26.40;14.70;;;;;;;;;;5058108;28;20269;-49
2022/03/31 08:51:26;;;;;;;24.47;16.63;;;;;;;;;;5057765;28;20641;-47
2022/03/31 08:53:53;;;;;;;26.03;17.07;;;;;;;;;;5057783;28;20223;-48
2022/03/31 08:56:21;;;;;;;23.33;14.57;;;;;;;;;;5058050;28;20211;-47
2022/03/31 08:59:07;;;;;;;19.17;14.13;;;;;;;;;;5058072;28;20200;-48
2022/03/31 09:01:38;;;;;;;18.00;14.13;;;;;;;;;;5057627;28;20709;-48
2022/03/31 09:04:06;;;;;;;21.80;15.73;;;;;;;;;;5058183;28;20704;-47
2022/03/31 09:06:43;;;;;;;24.27;15.43;;;;;;;;;;5057476;28;20212;-47
2022/03/31 09:09:10;;;;;;;20.90;15.37;;;;;;;;;;5057812;28;20232;-50
2022/03/31 09:11:37;;;;;;;24.93;17.83;;;;;;;;;;5057709;28;20204;-48
2022/03/31 09:14:32;;;;;;;29.13;19.17;;;;;;;;;;5057430;28;20196;-48
2022/03/31 09:17:18;;;;;;;23.97;17.17;;;;;;;;;;5057449;28;20204;-51
2022/03/31 09:19:46;;;;;;;25.57;17.70;;;;;;;;;;5057693;28;20212;-47
2022/03/31 09:22:13;;;;;;;25.27;19.73;;;;;;;;;;5057123;28;20223;-48
2022/03/31 09:24:40;;;;;;;22.63;16.20;;;;;;;;;;5057194;28;20207;-49
2022/03/31 09:27:07;;;;;;;20.13;11.97;;;;;;;;;;5057316;28;20228;-47
2022/03/31 09:29:34;;;;;;;23.33;16.93;;;;;;;;;;5057100;28;20215;-48
2022/03/31 09:32:21;;;;;;;21.47;15.80;;;;;;;;;;5056865;28;20246;-50
2022/03/31 09:34:48;;;;;;;17.47;12.30;;;;;;;;;;5057310;28;20536;-48
2022/03/31 09:37:15;;;;;;;18.40;13.23;;;;;;;;;;5057221;28;20200;-47
2022/03/31 09:39:53;;;;;;;14.20;9.40;;;;;;;;;;5056933;28;20246;-49
2022/03/31 09:42:21;;;;;;;23.67;15.73;;;;;;;;;;5057035;28;20643;-49
2022/03/31 09:44:58;;;;;;;20.83;16.30;;;;;;;;;;5056811;28;20204;-48
2022/03/31 09:47:26;;;;;;;18.03;14.33;;;;;;;;;;5057013;28;20235;-48
2022/03/31 09:49:54;;;;;;;22.60;13.07;;;;;;;;;;5057004;28;20212;-49
2022/03/31 09:52:22;;;;;;;16.53;13.77;;;;;;;;;;5057283;28;20204;-49
2022/03/31 09:54:49;;;;;;;21.67;11.50;;;;;;;;;;5056903;28;20235;-50
2022/03/31 09:57:20;;;;;;;20.43;13.00;;;;;;;;;;5056868;28;20218;-48
2022/03/31 09:59:52;;;;;;;22.20;14.50;;;;;;;;;;5056545;28;20207;-53
2022/03/31 10:02:21;;;;;;;16.77;13.17;;;;;;;;;;5056726;28;20208;-50
2022/03/31 10:04:49;;;;;;;21.50;12.97;;;;;;;;;;5056890;28;20292;-48
2022/03/31 10:07:16;;;;;;;17.73;11.60;;;;;;;;;;5055399;28;20231;-50
2022/03/31 10:09:44;;;;;;;24.20;16.10;;;;;;;;;;5055824;28;20236;-48
2022/03/31 10:12:18;;;;;;;18.13;11.30;;;;;;;;;;5056454;28;20207;-49
2022/03/31 10:14:52;;;;;;;19.93;15.13;;;;;;;;;;5055982;28;20188;-48
2022/03/31 10:17:25;;;;;;;18.00;13.83;;;;;;;;;;5055984;28;20219;-50
2022/03/31 10:19:54;;;;;;;17.27;14.00;;;;;;;;;;5056341;28;20235;-49
2022/03/31 10:25:10;;;;;;;17.00;12.87;;;;;;;;;;5056083;28;20192;-49
2022/03/31 10:27:45;;;;;;;18.60;11.30;;;;;;;;;;5056110;28;20211;-49
2022/03/31 10:30:14;;;;;;;15.77;10.53;;;;;;;;;;5056105;28;20200;-49
2022/03/31 10:32:55;;;;;;;20.90;13.67;;;;;;;;;;5055426;28;20204;-50
2022/03/31 10:35:24;;;;;;;16.97;11.67;;;;;;;;;;5056048;28;20264;-49
2022/03/31 10:37:51;;;;;;;18.33;12.33;;;;;;;;;;5056098;28;20208;-49
2022/03/31 10:40:38;;;;;;;16.20;12.80;;;;;;;;;;5056498;28;20239;-49
2022/03/31 10:43:06;;;;;;;18.80;12.47;;;;;;;;;;5055731;28;20208;-50
2022/03/31 10:45:44;;;;;;;15.00;11.80;;;;;;;;;;5055825;28;20200;-48
2022/03/31 10:48:17;;;;;;;16.07;11.30;;;;;;;;;;5055690;28;20199;-48
2022/03/31 10:50:44;;;;;;;17.10;11.97;;;;;;;;;;5055725;28;20253;-47
2022/03/31 10:53:11;;;;;;;15.77;10.50;;;;;;;;;;5055791;28;20199;-49
2022/03/31 10:55:48;;;;;;;17.03;10.00;;;;;;;;;;5055757;28;20207;-47
2022/03/31 10:58:20;;;;;;;18.90;11.80;;;;;;;;;;5055629;28;20206;-49
2022/03/31 11:00:49;;;;;;;17.60;12.07;;;;;;;;;;5056322;28;20207;-47
2022/03/31 11:03:17;;;;;;;16.03;11.73;;;;;;;;;;5054911;28;20639;-49
2022/03/31 11:05:46;;;;;;;12.40;7.77;;;;;;;;;;5055509;28;20227;-48
2022/03/31 11:08:18;;;;;;;15.67;12.60;;;;;;;;;;5055021;28;20743;-49
2022/03/31 11:10:47;;;;;;;18.00;12.27;;;;;;;;;;5055193;28;20188;-52
2022/03/31 11:13:16;;;;;;;20.97;14.00;;;;;;;;;;5055134;28;20211;-50
2022/03/31 11:15:47;;;;;;;16.60;10.97;;;;;;;;;;5055506;28;20204;-49
2022/03/31 11:18:14;;;;;;;15.57;11.10;;;;;;;;;;5055381;28;20657;-51
2022/03/31 11:20:41;;;;;;;20.57;13.37;;;;;;;;;;5054592;28;20212;-50
2022/03/31 11:23:08;;;;;;;16.77;11.20;;;;;;;;;;5055203;28;20309;-52
2022/03/31 11:25:36;;;;;;;13.90;11.33;;;;;;;;;;5055127;28;20627;-50
2022/03/31 11:28:08;;;;;;;12.00;9.27;;;;;;;;;;5054919;28;20208;-47
2022/03/31 11:30:36;;;;;;;15.30;11.13;;;;;;;;;;5055103;28;20246;-49
2022/03/31 11:33:04;;;;;;;18.47;11.77;;;;;;;;;;5055122;28;20200;-47
2022/03/31 11:35:31;;;;;;;32.63;13.53;;;;;;;;;;5055072;28;20570;-49
2022/03/31 11:38:00;;;;;;;14.47;8.90;;;;;;;;;;5054640;28;20534;-48
2022/03/31 11:40:31;;;;;;;15.70;11.73;;;;;;;;;;5055433;28;20226;-46
2022/03/31 11:43:00;;;;;;;15.43;11.90;;;;;;;;;;5054859;28;20211;-49
2022/03/31 11:45:29;;;;;;;13.57;10.37;;;;;;;;;;5054731;28;20253;-48
2022/03/31 11:48:02;;;;;;;15.70;11.57;;;;;;;;;;5055219;28;20274;-48
2022/03/31 11:50:32;;;;;;;16.53;10.93;;;;;;;;;;5055018;28;20204;-48
2022/03/31 11:53:30;;;;;;;16.30;10.57;;;;;;;;;;5054811;28;20287;-50
2022/03/31 11:56:02;;;;;;;12.00;10.10;;;;;;;;;;5054984;28;20200;-48
2022/03/31 11:58:33;;;;;;;13.47;8.77;;;;;;;;;;5052445;28;20207;-51
2022/03/31 12:01:00;;;;;;;14.87;10.07;;;;;;;;;;5051513;28;20195;-50
2022/03/31 12:03:37;;;;;;;13.93;10.27;;;;;;;;;;5053031;28;20200;-52
2022/03/31 12:06:06;;;;;;;14.30;11.30;;;;;;;;;;5051897;28;20251;-50
2022/03/31 12:08:34;;;;;;;17.60;12.20;;;;;;;;;;5052070;28;20220;-48
2022/03/31 12:11:02;;;;;;;14.33;9.10;;;;;;;;;;5052103;28;20196;-50
2022/03/31 12:13:29;;;;;;;15.23;12.03;;;;;;;;;;5047558;28;20670;-53
2022/03/31 12:16:07;;;;;;;15.87;10.80;;;;;;;;;;5053520;28;20243;-50
2022/03/31 12:18:36;;;;;;;19.30;13.13;;;;;;;;;;5053301;28;20232;-49
2022/03/31 12:21:05;;;;;;;12.47;7.37;;;;;;;;;;5053508;28;20227;-47
2022/03/31 12:23:40;;;;;;;19.03;12.20;;;;;;;;;;5052918;28;20294;-47
2022/03/31 12:26:27;;;;;;;14.97;11.67;;;;;;;;;;5053473;28;20278;-52
2022/03/31 12:28:56;;;;;;;18.40;12.63;;;;;;;;;;5053213;28;20236;-50
2022/03/31 12:31:34;;;;;;;24.80;15.57;;;;;;;;;;5053533;28;20227;-50
2022/03/31 12:34:03;;;;;;;15.27;12.63;;;;;;;;;;5045874;28;20277;-48
2022/03/31 12:36:32;;;;;;;16.57;11.57;;;;;;;;;;5053752;28;20260;-46
2022/03/31 12:39:03;;;;;;;22.80;14.57;;;;;;;;;;5039447;28;20224;-49
2022/03/31 12:41:36;;;;;;;18.30;12.17;;;;;;;;;;5033284;28;20232;-49
2022/03/31 12:44:12;;;;;;;16.97;11.90;;;;;;;;;;5033377;28;20573;-48
2022/03/31 12:46:43;;;;;;;21.93;12.83;;;;;;;;;;5033144;28;20224;-49
2022/03/31 12:49:17;;;;;;;15.53;11.80;;;;;;;;;;5033777;28;20224;-48
2022/03/31 12:51:50;;;;;;;16.83;12.37;;;;;;;;;;5033432;28;20275;-50
2022/03/31 12:54:28;;;;;;;17.73;12.33;;;;;;;;;;5033562;28;20613;-49
2022/03/31 12:57:01;;;;;;;17.97;12.57;;;;;;;;;;5034780;28;20220;-50
2022/03/31 12:59:30;;;;;;;17.27;13.63;;;;;;;;;;5054068;28;20224;-53
2022/03/31 13:02:06;;;;;;;25.53;13.53;;;;;;;;;;5056996;28;20228;-48
2022/03/31 13:04:44;;;;;;;17.50;11.97;;;;;;;;;;5056425;28;20257;-49
2022/03/31 13:07:13;;;;;;;15.73;12.27;;;;;;;;;;5056431;28;20235;-47
2022/03/31 13:09:40;;;;;;;17.17;11.73;;;;;;;;;;5056304;28;20240;-48
2022/03/31 13:12:11;;;;;;;17.27;11.23;;;;;;;;;;5056679;28;20240;-45
2022/03/31 14:01:53;;;;;;;19.73;11.57;;;;;;;;;;5071364;28;20233;-57
2022/03/31 14:04:24;;;;;;;17.53;10.43;;;;;;;;;;5076072;27;20683;-59
2022/03/31 14:06:52;;;;;;;14.47;10.67;;;;;;;;;;5070268;28;20684;-58
2022/03/31 14:09:24;;;;;;;15.47;10.67;;;;;;;;;;5069964;28;20219;-59
2022/03/31 14:11:53;;;;;;;16.10;10.27;;;;;;;;;;5071525;28;20226;-59
2022/03/31 14:14:23;;;;;;;12.10;9.80;;;;;;;;;;5066032;28;20860;-59
2022/03/31 14:16:52;;;;;;;15.13;11.63;;;;;;;;;;5069462;28;20296;-58
2022/03/31 14:19:23;;;;;;;17.77;11.37;;;;;;;;;;5069160;28;20215;-58
2022/03/31 14:21:52;;;;;;;14.33;9.43;;;;;;;;;;5066198;28;20613;-59
2022/03/31 14:24:21;;;;;;;15.20;11.00;;;;;;;;;;5068768;28;20226;-59
2022/03/31 14:26:49;;;;;;;16.03;10.47;;;;;;;;;;5069163;28;20255;-60
2022/03/31 14:29:17;;;;;;;12.37;9.27;;;;;;;;;;5066349;28;20609;-58
2022/03/31 14:31:47;;;;;;;18.70;11.60;;;;;;;;;;5068149;28;20470;-58
2022/03/31 14:34:15;;;;;;;16.57;11.33;;;;;;;;;;5068785;28;20250;-56
2022/03/31 14:36:46;;;;;;;16.07;11.23;;;;;;;;;;5068590;28;20226;-58
2022/03/31 14:39:14;;;;;;;19.03;11.50;;;;;;;;;;5068883;28;20216;-58
2022/03/31 14:41:44;;;;;;;14.17;10.63;;;;;;;;;;5069259;28;20215;-58
2022/03/31 14:44:16;;;;;;;16.20;12.67;;;;;;;;;;5068673;28;20255;-58
2022/03/31 14:46:43;;;;;;;15.70;11.63;;;;;;;;;;5068635;28;20223;-57
2022/03/31 14:49:12;;;;;;;16.80;10.30;;;;;;;;;;5068764;28;20272;-59
2022/03/31 14:51:40;;;;;;;16.13;11.43;;;;;;;;;;5070703;28;20211;-58
2022/03/31 14:54:08;;;;;;;14.87;10.90;;;;;;;;;;5065571;28;20676;-59
2022/03/31 14:56:36;;;;;;;16.60;11.67;;;;;;;;;;5065497;28;20218;-55
2022/03/31 14:59:04;;;;;;;22.17;14.70;;;;;;;;;;5060555;28;20232;-57
2022/03/31 15:01:31;;;;;;;20.17;12.50;;;;;;;;;;5055015;28;20558;-60
2022/03/31 15:03:59;;;;;;;19.00;13.23;;;;;;;;;;5064566;28;20238;-58
2022/03/31 15:06:28;;;;;;;17.60;12.50;;;;;;;;;;5069756;28;20348;-59
2022/03/31 15:08:56;;;;;;;15.43;11.70;;;;;;;;;;5075212;28;20230;-58
2022/03/31 15:16:56;;;;;;;16.13;10.70;;;;;;;;;;5043240;28;20224;-60
2022/03/31 15:19:27;;;;;;;15.83;12.73;;;;;;;;;;5056251;28;20736;-56
2022/03/31 15:21:55;;;;;;;17.97;12.80;;;;;;;;;;5057055;28;20314;-60
2022/03/31 15:24:22;;;;;;;30.50;15.47;;;;;;;;;;5053752;28;20290;-60
2022/03/31 15:26:51;;;;;;;21.47;14.50;;;;;;;;;;5045487;28;20298;-60